sensor_id;sensor_type;location;lat;lon;timestamp;P1;durP1;ratioP1;P2;durP2;ratioP2
16579;SDS011;8402;51.466;6.806;2023-05-21T00:01:09;14.13;;;7.37;;
16579;SDS011;8402;51.466;6.806;2023-05-21T00:03:41;14.90;;;8.73;;
16579;SDS011;8402;51.466;6.806;2023-05-21T00:06:14;11.70;;;8.17;;
16579;SDS011;8402;51.466;6.806;2023-05-21T00:08:46;13.43;;;7.67;;
16579;SDS011;8402;51.466;6.806;2023-05-21T00:11:16;13.73;;;8.00;;
16579;SDS011;8402;51.466;6.806;2023-05-21T00:13:46;11.13;;;7.30;;
16579;SDS011;8402;51.466;6.806;2023-05-21T00:16:16;12.23;;;7.30;;
16579;SDS011;8402;51.466;6.806;2023-05-21T00:18:49;12.17;;;7.97;;
16579;SDS011;8402;51.466;6.806;2023-05-21T00:21:22;10.07;;;7.30;;
16579;SDS011;8402;51.466;6.806;2023-05-21T00:23:52;12.23;;;7.10;;
16579;SDS011;8402;51.466;6.806;2023-05-21T00:26:23;12.47;;;6.80;;
16579;SDS011;8402;51.466;6.806;2023-05-21T00:28:53;10.53;;;6.50;;
16579;SDS011;8402;51.466;6.806;2023-05-21T00:31:23;11.20;;;7.20;;
16579;SDS011;8402;51.466;6.806;2023-05-21T00:33:53;10.53;;;6.77;;
16579;SDS011;8402;51.466;6.806;2023-05-21T00:36:26;12.13;;;7.03;;
16579;SDS011;8402;51.466;6.806;2023-05-21T00:38:57;10.27;;;6.20;;
16579;SDS011;8402;51.466;6.806;2023-05-21T00:41:27;20.40;;;7.37;;
16579;SDS011;8402;51.466;6.806;2023-05-21T00:44:01;12.40;;;6.20;;
16579;SDS011;8402;51.466;6.806;2023-05-21T00:46:31;10.60;;;6.50;;
16579;SDS011;8402;51.466;6.806;2023-05-21T00:49:01;9.87;;;6.03;;
16579;SDS011;8402;51.466;6.806;2023-05-21T00:51:35;10.23;;;6.10;;
16579;SDS011;8402;51.466;6.806;2023-05-21T00:54:05;9.60;;;5.60;;
16579;SDS011;8402;51.466;6.806;2023-05-21T00:56:35;9.13;;;5.97;;
16579;SDS011;8402;51.466;6.806;2023-05-21T00:59:06;9.87;;;5.83;;
16579;SDS011;8402;51.466;6.806;2023-05-21T01:01:36;8.60;;;5.87;;
16579;SDS011;8402;51.466;6.806;2023-05-21T01:04:06;8.20;;;5.73;;
16579;SDS011;8402;51.466;6.806;2023-05-21T01:06:39;8.60;;;5.60;;
16579;SDS011;8402;51.466;6.806;2023-05-21T01:09:09;8.83;;;5.93;;
16579;SDS011;8402;51.466;6.806;2023-05-21T01:11:39;11.30;;;6.03;;
16579;SDS011;8402;51.466;6.806;2023-05-21T01:14:12;9.57;;;6.07;;
16579;SDS011;8402;51.466;6.806;2023-05-21T01:16:44;7.97;;;5.63;;
16579;SDS011;8402;51.466;6.806;2023-05-21T01:19:19;10.70;;;5.63;;
16579;SDS011;8402;51.466;6.806;2023-05-21T01:21:55;7.60;;;5.40;;
16579;SDS011;8402;51.466;6.806;2023-05-21T01:24:32;10.70;;;5.73;;
16579;SDS011;8402;51.466;6.806;2023-05-21T01:27:03;10.67;;;5.90;;
16579;SDS011;8402;51.466;6.806;2023-05-21T01:29:36;7.60;;;5.30;;
16579;SDS011;8402;51.466;6.806;2023-05-21T01:32:07;7.77;;;5.43;;
16579;SDS011;8402;51.466;6.806;2023-05-21T01:34:44;8.00;;;5.53;;
16579;SDS011;8402;51.466;6.806;2023-05-21T01:37:20;7.90;;;5.47;;
16579;SDS011;8402;51.466;6.806;2023-05-21T01:39:59;10.70;;;6.07;;
16579;SDS011;8402;51.466;6.806;2023-05-21T01:42:34;8.80;;;5.27;;
16579;SDS011;8402;51.466;6.806;2023-05-21T01:45:07;10.10;;;5.90;;
16579;SDS011;8402;51.466;6.806;2023-05-21T01:47:38;10.90;;;5.73;;
16579;SDS011;8402;51.466;6.806;2023-05-21T01:50:10;10.80;;;5.53;;
16579;SDS011;8402;51.466;6.806;2023-05-21T01:52:47;8.93;;;5.57;;
16579;SDS011;8402;51.466;6.806;2023-05-21T01:55:21;9.77;;;5.83;;
16579;SDS011;8402;51.466;6.806;2023-05-21T01:57:53;7.13;;;5.17;;
16579;SDS011;8402;51.466;6.806;2023-05-21T02:00:27;9.90;;;5.20;;
16579;SDS011;8402;51.466;6.806;2023-05-21T02:02:58;7.53;;;4.97;;
16579;SDS011;8402;51.466;6.806;2023-05-21T02:05:28;8.30;;;5.47;;
16579;SDS011;8402;51.466;6.806;2023-05-21T02:07:58;6.97;;;4.90;;
16579;SDS011;8402;51.466;6.806;2023-05-21T02:10:31;9.43;;;5.53;;
16579;SDS011;8402;51.466;6.806;2023-05-21T02:13:01;9.30;;;5.50;;
16579;SDS011;8402;51.466;6.806;2023-05-21T02:15:31;9.30;;;5.80;;
16579;SDS011;8402;51.466;6.806;2023-05-21T02:18:02;9.50;;;5.53;;
16579;SDS011;8402;51.466;6.806;2023-05-21T02:20:35;8.40;;;5.10;;
16579;SDS011;8402;51.466;6.806;2023-05-21T02:23:05;10.77;;;6.40;;
16579;SDS011;8402;51.466;6.806;2023-05-21T02:25:37;8.83;;;5.33;;
16579;SDS011;8402;51.466;6.806;2023-05-21T02:28:08;7.77;;;5.53;;
16579;SDS011;8402;51.466;6.806;2023-05-21T02:30:38;7.10;;;5.30;;
16579;SDS011;8402;51.466;6.806;2023-05-21T02:33:08;8.20;;;5.47;;
16579;SDS011;8402;51.466;6.806;2023-05-21T02:35:40;13.17;;;5.90;;
16579;SDS011;8402;51.466;6.806;2023-05-21T02:38:10;8.77;;;5.80;;
16579;SDS011;8402;51.466;6.806;2023-05-21T02:40:43;11.07;;;5.80;;
16579;SDS011;8402;51.466;6.806;2023-05-21T02:43:13;8.20;;;5.47;;
16579;SDS011;8402;51.466;6.806;2023-05-21T02:45:43;8.53;;;5.73;;
16579;SDS011;8402;51.466;6.806;2023-05-21T02:48:13;8.80;;;5.77;;
16579;SDS011;8402;51.466;6.806;2023-05-21T02:50:43;9.80;;;5.83;;
16579;SDS011;8402;51.466;6.806;2023-05-21T02:53:13;10.17;;;6.73;;
16579;SDS011;8402;51.466;6.806;2023-05-21T02:55:45;11.10;;;6.13;;
16579;SDS011;8402;51.466;6.806;2023-05-21T02:58:15;10.37;;;6.53;;
16579;SDS011;8402;51.466;6.806;2023-05-21T03:00:47;11.10;;;5.93;;
16579;SDS011;8402;51.466;6.806;2023-05-21T03:03:17;8.20;;;5.63;;
16579;SDS011;8402;51.466;6.806;2023-05-21T03:05:47;9.17;;;5.63;;
16579;SDS011;8402;51.466;6.806;2023-05-21T03:08:17;9.30;;;5.60;;
16579;SDS011;8402;51.466;6.806;2023-05-21T03:10:49;9.47;;;6.00;;
16579;SDS011;8402;51.466;6.806;2023-05-21T03:13:19;9.53;;;5.40;;
16579;SDS011;8402;51.466;6.806;2023-05-21T03:15:50;10.37;;;5.77;;
16579;SDS011;8402;51.466;6.806;2023-05-21T03:18:21;10.13;;;5.67;;
16579;SDS011;8402;51.466;6.806;2023-05-21T03:20:51;8.53;;;5.80;;
16579;SDS011;8402;51.466;6.806;2023-05-21T03:23:24;9.27;;;6.20;;
16579;SDS011;8402;51.466;6.806;2023-05-21T03:25:57;12.13;;;6.83;;
16579;SDS011;8402;51.466;6.806;2023-05-21T03:28:28;10.03;;;5.70;;
16579;SDS011;8402;51.466;6.806;2023-05-21T03:30:58;10.73;;;6.13;;
16579;SDS011;8402;51.466;6.806;2023-05-21T03:33:28;9.43;;;5.60;;
16579;SDS011;8402;51.466;6.806;2023-05-21T03:35:58;10.07;;;6.60;;
16579;SDS011;8402;51.466;6.806;2023-05-21T03:38:28;9.97;;;6.00;;
16579;SDS011;8402;51.466;6.806;2023-05-21T03:41:01;9.50;;;5.63;;
16579;SDS011;8402;51.466;6.806;2023-05-21T03:43:31;8.90;;;6.17;;
16579;SDS011;8402;51.466;6.806;2023-05-21T03:46:01;7.97;;;5.97;;
16579;SDS011;8402;51.466;6.806;2023-05-21T03:48:32;9.97;;;6.60;;
16579;SDS011;8402;51.466;6.806;2023-05-21T03:51:02;12.03;;;6.60;;
16579;SDS011;8402;51.466;6.806;2023-05-21T03:53:33;9.50;;;6.13;;
16579;SDS011;8402;51.466;6.806;2023-05-21T03:56:06;9.87;;;6.07;;
16579;SDS011;8402;51.466;6.806;2023-05-21T03:58:37;9.57;;;6.20;;
16579;SDS011;8402;51.466;6.806;2023-05-21T04:01:07;9.23;;;6.13;;
16579;SDS011;8402;51.466;6.806;2023-05-21T04:03:37;9.30;;;6.20;;
16579;SDS011;8402;51.466;6.806;2023-05-21T04:06:07;10.23;;;6.40;;
16579;SDS011;8402;51.466;6.806;2023-05-21T04:08:37;10.47;;;6.33;;
16579;SDS011;8402;51.466;6.806;2023-05-21T04:11:10;10.63;;;6.77;;
16579;SDS011;8402;51.466;6.806;2023-05-21T04:13:40;9.27;;;6.67;;
16579;SDS011;8402;51.466;6.806;2023-05-21T04:16:11;10.00;;;6.80;;
16579;SDS011;8402;51.466;6.806;2023-05-21T04:18:44;12.07;;;6.47;;
16579;SDS011;8402;51.466;6.806;2023-05-21T04:21:15;10.30;;;6.80;;
16579;SDS011;8402;51.466;6.806;2023-05-21T04:23:45;8.97;;;6.43;;
16579;SDS011;8402;51.466;6.806;2023-05-21T04:26:18;9.70;;;6.67;;
16579;SDS011;8402;51.466;6.806;2023-05-21T04:28:48;14.30;;;6.77;;
16579;SDS011;8402;51.466;6.806;2023-05-21T04:31:20;9.20;;;5.97;;
16579;SDS011;8402;51.466;6.806;2023-05-21T04:33:50;10.00;;;6.63;;
16579;SDS011;8402;51.466;6.806;2023-05-21T04:36:20;12.47;;;6.60;;
16579;SDS011;8402;51.466;6.806;2023-05-21T04:38:50;8.73;;;6.00;;
16579;SDS011;8402;51.466;6.806;2023-05-21T04:41:23;9.40;;;6.43;;
16579;SDS011;8402;51.466;6.806;2023-05-21T04:43:54;14.23;;;6.20;;
16579;SDS011;8402;51.466;6.806;2023-05-21T04:46:24;9.97;;;6.63;;
16579;SDS011;8402;51.466;6.806;2023-05-21T04:48:54;8.97;;;6.07;;
16579;SDS011;8402;51.466;6.806;2023-05-21T04:51:28;9.43;;;6.13;;
16579;SDS011;8402;51.466;6.806;2023-05-21T04:53:58;9.07;;;6.40;;
16579;SDS011;8402;51.466;6.806;2023-05-21T04:56:31;11.07;;;6.67;;
16579;SDS011;8402;51.466;6.806;2023-05-21T04:59:01;9.50;;;6.13;;
16579;SDS011;8402;51.466;6.806;2023-05-21T05:01:32;9.53;;;6.57;;
16579;SDS011;8402;51.466;6.806;2023-05-21T05:04:04;10.07;;;6.53;;
16579;SDS011;8402;51.466;6.806;2023-05-21T05:06:34;8.97;;;6.40;;
16579;SDS011;8402;51.466;6.806;2023-05-21T05:09:04;11.47;;;6.80;;
16579;SDS011;8402;51.466;6.806;2023-05-21T05:11:37;13.03;;;7.10;;
16579;SDS011;8402;51.466;6.806;2023-05-21T05:14:07;8.97;;;5.93;;
16579;SDS011;8402;51.466;6.806;2023-05-21T05:16:37;12.23;;;6.67;;
16579;SDS011;8402;51.466;6.806;2023-05-21T05:19:08;11.30;;;7.10;;
16579;SDS011;8402;51.466;6.806;2023-05-21T05:21:38;9.77;;;6.43;;
16579;SDS011;8402;51.466;6.806;2023-05-21T05:24:08;10.03;;;6.50;;
16579;SDS011;8402;51.466;6.806;2023-05-21T05:26:40;10.53;;;6.50;;
16579;SDS011;8402;51.466;6.806;2023-05-21T05:29:10;13.40;;;6.77;;
16579;SDS011;8402;51.466;6.806;2023-05-21T05:31:40;11.30;;;6.37;;
16579;SDS011;8402;51.466;6.806;2023-05-21T05:34:10;9.87;;;6.90;;
16579;SDS011;8402;51.466;6.806;2023-05-21T05:36:40;8.60;;;6.33;;
16579;SDS011;8402;51.466;6.806;2023-05-21T05:39:10;13.07;;;6.67;;
16579;SDS011;8402;51.466;6.806;2023-05-21T05:41:43;9.60;;;6.53;;
16579;SDS011;8402;51.466;6.806;2023-05-21T05:44:14;9.90;;;6.77;;
16579;SDS011;8402;51.466;6.806;2023-05-21T05:46:44;9.00;;;6.53;;
16579;SDS011;8402;51.466;6.806;2023-05-21T05:49:14;13.93;;;6.77;;
16579;SDS011;8402;51.466;6.806;2023-05-21T05:51:44;12.67;;;6.83;;
16579;SDS011;8402;51.466;6.806;2023-05-21T05:54:14;13.00;;;7.23;;
16579;SDS011;8402;51.466;6.806;2023-05-21T05:56:47;11.13;;;7.00;;
16579;SDS011;8402;51.466;6.806;2023-05-21T05:59:17;9.47;;;6.30;;
16579;SDS011;8402;51.466;6.806;2023-05-21T06:01:47;10.30;;;6.57;;
16579;SDS011;8402;51.466;6.806;2023-05-21T06:04:17;10.77;;;7.30;;
16579;SDS011;8402;51.466;6.806;2023-05-21T06:06:47;9.33;;;6.73;;
16579;SDS011;8402;51.466;6.806;2023-05-21T06:09:18;9.43;;;6.40;;
16579;SDS011;8402;51.466;6.806;2023-05-21T06:11:50;12.70;;;6.70;;
16579;SDS011;8402;51.466;6.806;2023-05-21T06:14:20;12.37;;;6.67;;
16579;SDS011;8402;51.466;6.806;2023-05-21T06:16:51;10.33;;;7.10;;
16579;SDS011;8402;51.466;6.806;2023-05-21T06:19:21;10.63;;;7.27;;
16579;SDS011;8402;51.466;6.806;2023-05-21T06:21:51;9.97;;;6.00;;
16579;SDS011;8402;51.466;6.806;2023-05-21T06:24:21;11.53;;;7.30;;
16579;SDS011;8402;51.466;6.806;2023-05-21T06:26:53;10.77;;;7.57;;
16579;SDS011;8402;51.466;6.806;2023-05-21T06:29:23;10.87;;;7.50;;
16579;SDS011;8402;51.466;6.806;2023-05-21T06:31:53;10.27;;;7.20;;
16579;SDS011;8402;51.466;6.806;2023-05-21T06:34:23;13.97;;;7.33;;
16579;SDS011;8402;51.466;6.806;2023-05-21T06:36:54;12.00;;;7.70;;
16579;SDS011;8402;51.466;6.806;2023-05-21T06:39:24;11.53;;;7.50;;
16579;SDS011;8402;51.466;6.806;2023-05-21T06:41:56;13.07;;;7.80;;
16579;SDS011;8402;51.466;6.806;2023-05-21T06:44:27;11.17;;;7.47;;
16579;SDS011;8402;51.466;6.806;2023-05-21T06:46:57;11.27;;;7.57;;
16579;SDS011;8402;51.466;6.806;2023-05-21T06:49:27;12.97;;;8.37;;
16579;SDS011;8402;51.466;6.806;2023-05-21T06:51:57;10.63;;;7.30;;
16579;SDS011;8402;51.466;6.806;2023-05-21T06:54:27;12.03;;;7.67;;
16579;SDS011;8402;51.466;6.806;2023-05-21T06:56:59;15.23;;;7.63;;
16579;SDS011;8402;51.466;6.806;2023-05-21T06:59:30;10.33;;;7.37;;
16579;SDS011;8402;51.466;6.806;2023-05-21T07:02:00;10.17;;;7.67;;
16579;SDS011;8402;51.466;6.806;2023-05-21T07:04:30;9.93;;;7.47;;
16579;SDS011;8402;51.466;6.806;2023-05-21T07:07:00;12.80;;;8.10;;
16579;SDS011;8402;51.466;6.806;2023-05-21T07:09:31;10.93;;;7.20;;
16579;SDS011;8402;51.466;6.806;2023-05-21T07:12:03;13.77;;;7.40;;
16579;SDS011;8402;51.466;6.806;2023-05-21T07:14:34;10.90;;;7.37;;
16579;SDS011;8402;51.466;6.806;2023-05-21T07:17:04;11.63;;;7.90;;
16579;SDS011;8402;51.466;6.806;2023-05-21T07:19:34;10.50;;;6.93;;
16579;SDS011;8402;51.466;6.806;2023-05-21T07:22:04;10.27;;;7.40;;
16579;SDS011;8402;51.466;6.806;2023-05-21T07:24:34;12.37;;;8.17;;
16579;SDS011;8402;51.466;6.806;2023-05-21T07:27:07;9.57;;;7.40;;
16579;SDS011;8402;51.466;6.806;2023-05-21T07:29:50;11.67;;;7.93;;
16579;SDS011;8402;51.466;6.806;2023-05-21T07:32:20;11.77;;;8.10;;
16579;SDS011;8402;51.466;6.806;2023-05-21T07:34:52;12.88;;;7.13;;
16579;SDS011;8402;51.466;6.806;2023-05-21T07:37:22;12.37;;;8.07;;
16579;SDS011;8402;51.466;6.806;2023-05-21T07:39:53;11.88;;;7.35;;
16579;SDS011;8402;51.466;6.806;2023-05-21T07:42:26;9.93;;;7.20;;
16579;SDS011;8402;51.466;6.806;2023-05-21T07:44:56;10.77;;;7.95;;
16579;SDS011;8402;51.466;6.806;2023-05-21T07:47:26;11.68;;;8.20;;
16579;SDS011;8402;51.466;6.806;2023-05-21T07:49:58;12.18;;;8.23;;
16579;SDS011;8402;51.466;6.806;2023-05-21T07:52:27;13.88;;;8.35;;
16579;SDS011;8402;51.466;6.806;2023-05-21T07:54:58;10.05;;;7.63;;
16579;SDS011;8402;51.466;6.806;2023-05-21T07:57:32;12.15;;;8.73;;
16579;SDS011;8402;51.466;6.806;2023-05-21T08:00:02;10.77;;;7.90;;
16579;SDS011;8402;51.466;6.806;2023-05-21T08:02:34;12.73;;;8.18;;
16579;SDS011;8402;51.466;6.806;2023-05-21T08:05:05;11.95;;;7.93;;
16579;SDS011;8402;51.466;6.806;2023-05-21T08:07:36;12.02;;;8.38;;
16579;SDS011;8402;51.466;6.806;2023-05-21T08:10:07;12.68;;;8.52;;
16579;SDS011;8402;51.466;6.806;2023-05-21T08:12:40;12.02;;;8.02;;
16579;SDS011;8402;51.466;6.806;2023-05-21T08:15:10;13.10;;;9.18;;
16579;SDS011;8402;51.466;6.806;2023-05-21T08:17:40;12.88;;;8.88;;
16579;SDS011;8402;51.466;6.806;2023-05-21T08:20:10;12.90;;;8.50;;
16579;SDS011;8402;51.466;6.806;2023-05-21T08:22:41;11.50;;;9.02;;
16579;SDS011;8402;51.466;6.806;2023-05-21T08:25:11;12.57;;;9.25;;
16579;SDS011;8402;51.466;6.806;2023-05-21T08:27:44;14.93;;;9.93;;
16579;SDS011;8402;51.466;6.806;2023-05-21T08:30:17;13.07;;;9.50;;
16579;SDS011;8402;51.466;6.806;2023-05-21T08:32:47;12.63;;;9.68;;
16579;SDS011;8402;51.466;6.806;2023-05-21T08:35:17;13.35;;;9.73;;
16579;SDS011;8402;51.466;6.806;2023-05-21T08:37:47;11.35;;;8.73;;
16579;SDS011;8402;51.466;6.806;2023-05-21T08:40:18;14.30;;;9.55;;
16579;SDS011;8402;51.466;6.806;2023-05-21T08:42:50;11.95;;;9.07;;
16579;SDS011;8402;51.466;6.806;2023-05-21T08:45:21;15.23;;;9.80;;
16579;SDS011;8402;51.466;6.806;2023-05-21T08:47:53;15.23;;;10.43;;
16579;SDS011;8402;51.466;6.806;2023-05-21T08:50:25;12.98;;;9.13;;
16579;SDS011;8402;51.466;6.806;2023-05-21T08:52:56;13.50;;;8.93;;
16579;SDS011;8402;51.466;6.806;2023-05-21T08:55:35;12.45;;;9.13;;
16579;SDS011;8402;51.466;6.806;2023-05-21T08:58:11;13.65;;;9.50;;
16579;SDS011;8402;51.466;6.806;2023-05-21T09:00:41;11.43;;;8.73;;
16579;SDS011;8402;51.466;6.806;2023-05-21T09:03:11;11.52;;;8.52;;
16579;SDS011;8402;51.466;6.806;2023-05-21T09:05:43;12.23;;;8.90;;
16579;SDS011;8402;51.466;6.806;2023-05-21T09:08:15;13.13;;;10.00;;
16579;SDS011;8402;51.466;6.806;2023-05-21T09:10:48;11.32;;;9.10;;
16579;SDS011;8402;51.466;6.806;2023-05-21T09:13:21;11.75;;;10.10;;
16579;SDS011;8402;51.466;6.806;2023-05-21T09:15:53;14.45;;;10.20;;
16579;SDS011;8402;51.466;6.806;2023-05-21T09:18:24;13.20;;;9.70;;
16579;SDS011;8402;51.466;6.806;2023-05-21T09:20:55;12.68;;;9.85;;
16579;SDS011;8402;51.466;6.806;2023-05-21T09:23:25;12.48;;;9.55;;
16579;SDS011;8402;51.466;6.806;2023-05-21T09:25:57;12.68;;;10.07;;
16579;SDS011;8402;51.466;6.806;2023-05-21T09:28:31;11.80;;;9.38;;
16579;SDS011;8402;51.466;6.806;2023-05-21T09:31:04;14.45;;;10.32;;
16579;SDS011;8402;51.466;6.806;2023-05-21T09:33:35;14.90;;;10.77;;
16579;SDS011;8402;51.466;6.806;2023-05-21T09:36:16;15.02;;;10.57;;
16579;SDS011;8402;51.466;6.806;2023-05-21T09:38:48;13.60;;;10.55;;
16579;SDS011;8402;51.466;6.806;2023-05-21T09:41:19;13.77;;;10.27;;
16579;SDS011;8402;51.466;6.806;2023-05-21T09:44:04;14.00;;;10.90;;
16579;SDS011;8402;51.466;6.806;2023-05-21T09:46:36;13.98;;;10.77;;
16579;SDS011;8402;51.466;6.806;2023-05-21T09:49:20;13.48;;;10.25;;
16579;SDS011;8402;51.466;6.806;2023-05-21T09:51:53;13.60;;;10.70;;
16579;SDS011;8402;51.466;6.806;2023-05-21T09:54:24;18.40;;;11.88;;
16579;SDS011;8402;51.466;6.806;2023-05-21T09:56:59;13.27;;;10.40;;
16579;SDS011;8402;51.466;6.806;2023-05-21T09:59:38;16.13;;;10.77;;
16579;SDS011;8402;51.466;6.806;2023-05-21T10:02:15;15.13;;;11.02;;
16579;SDS011;8402;51.466;6.806;2023-05-21T10:04:48;22.60;;;12.40;;
16579;SDS011;8402;51.466;6.806;2023-05-21T10:07:20;13.65;;;10.20;;
16579;SDS011;8402;51.466;6.806;2023-05-21T10:09:52;16.13;;;10.88;;
16579;SDS011;8402;51.466;6.806;2023-05-21T10:12:24;15.45;;;10.63;;
16579;SDS011;8402;51.466;6.806;2023-05-21T10:14:59;13.98;;;11.23;;
16579;SDS011;8402;51.466;6.806;2023-05-21T10:17:29;13.45;;;10.65;;
16579;SDS011;8402;51.466;6.806;2023-05-21T10:20:01;13.98;;;11.32;;
16579;SDS011;8402;51.466;6.806;2023-05-21T10:22:31;14.68;;;10.80;;
16579;SDS011;8402;51.466;6.806;2023-05-21T10:25:03;13.02;;;9.90;;
16579;SDS011;8402;51.466;6.806;2023-05-21T10:27:35;14.55;;;11.18;;
16579;SDS011;8402;51.466;6.806;2023-05-21T10:30:08;15.15;;;11.68;;
16579;SDS011;8402;51.466;6.806;2023-05-21T10:32:40;16.33;;;11.30;;
16579;SDS011;8402;51.466;6.806;2023-05-21T10:35:11;15.50;;;11.60;;
16579;SDS011;8402;51.466;6.806;2023-05-21T10:37:44;14.30;;;11.00;;
16579;SDS011;8402;51.466;6.806;2023-05-21T10:40:14;14.77;;;11.05;;
16579;SDS011;8402;51.466;6.806;2023-05-21T10:42:51;15.30;;;11.85;;
16579;SDS011;8402;51.466;6.806;2023-05-21T10:45:41;15.70;;;11.98;;
16579;SDS011;8402;51.466;6.806;2023-05-21T10:48:34;16.33;;;11.55;;
16579;SDS011;8402;51.466;6.806;2023-05-21T10:51:17;14.50;;;11.10;;
16579;SDS011;8402;51.466;6.806;2023-05-21T10:53:59;19.98;;;11.32;;
16579;SDS011;8402;51.466;6.806;2023-05-21T10:56:45;12.43;;;9.82;;
16579;SDS011;8402;51.466;6.806;2023-05-21T10:59:26;15.85;;;11.23;;
16579;SDS011;8402;51.466;6.806;2023-05-21T11:02:07;15.68;;;11.00;;
16579;SDS011;8402;51.466;6.806;2023-05-21T11:04:40;15.10;;;10.80;;
16579;SDS011;8402;51.466;6.806;2023-05-21T11:07:17;13.93;;;10.90;;
16579;SDS011;8402;51.466;6.806;2023-05-21T11:09:51;16.80;;;11.25;;
16579;SDS011;8402;51.466;6.806;2023-05-21T11:12:24;15.32;;;11.60;;
16579;SDS011;8402;51.466;6.806;2023-05-21T11:14:55;13.52;;;11.27;;
16579;SDS011;8402;51.466;6.806;2023-05-21T11:17:37;17.50;;;11.60;;
16579;SDS011;8402;51.466;6.806;2023-05-21T11:20:10;15.38;;;11.43;;
16579;SDS011;8402;51.466;6.806;2023-05-21T11:22:42;16.35;;;11.05;;
16579;SDS011;8402;51.466;6.806;2023-05-21T11:25:14;14.75;;;11.18;;
16579;SDS011;8402;51.466;6.806;2023-05-21T11:27:46;16.40;;;12.15;;
16579;SDS011;8402;51.466;6.806;2023-05-21T11:30:17;14.68;;;10.75;;
16579;SDS011;8402;51.466;6.806;2023-05-21T11:35:56;15.95;;;11.55;;
16579;SDS011;8402;51.466;6.806;2023-05-21T11:38:27;14.55;;;10.77;;
16579;SDS011;8402;51.466;6.806;2023-05-21T11:41:00;13.75;;;11.43;;
16579;SDS011;8402;51.466;6.806;2023-05-21T11:43:31;14.07;;;11.45;;
16579;SDS011;8402;51.466;6.806;2023-05-21T11:46:02;12.75;;;10.60;;
16579;SDS011;8402;51.466;6.806;2023-05-21T11:48:35;15.25;;;11.05;;
16579;SDS011;8402;51.466;6.806;2023-05-21T11:51:06;16.45;;;10.88;;
16579;SDS011;8402;51.466;6.806;2023-05-21T11:53:36;14.65;;;11.73;;
16579;SDS011;8402;51.466;6.806;2023-05-21T11:56:09;14.60;;;11.10;;
16579;SDS011;8402;51.466;6.806;2023-05-21T11:58:41;15.88;;;12.05;;
16579;SDS011;8402;51.466;6.806;2023-05-21T12:01:19;15.82;;;11.90;;
16579;SDS011;8402;51.466;6.806;2023-05-21T12:03:53;17.23;;;12.32;;
16579;SDS011;8402;51.466;6.806;2023-05-21T12:06:25;13.88;;;11.02;;
16579;SDS011;8402;51.466;6.806;2023-05-21T12:08:56;15.30;;;12.60;;
16579;SDS011;8402;51.466;6.806;2023-05-21T12:11:26;16.02;;;11.88;;
16579;SDS011;8402;51.466;6.806;2023-05-21T12:13:57;16.20;;;11.85;;
16579;SDS011;8402;51.466;6.806;2023-05-21T12:16:27;16.88;;;12.05;;
16579;SDS011;8402;51.466;6.806;2023-05-21T12:19:00;15.13;;;12.40;;
16579;SDS011;8402;51.466;6.806;2023-05-21T12:21:30;18.35;;;12.30;;
16579;SDS011;8402;51.466;6.806;2023-05-21T12:24:01;14.43;;;11.52;;
16579;SDS011;8402;51.466;6.806;2023-05-21T12:26:31;18.65;;;11.55;;
16579;SDS011;8402;51.466;6.806;2023-05-21T12:29:01;15.85;;;12.13;;
16579;SDS011;8402;51.466;6.806;2023-05-21T12:31:36;16.13;;;12.30;;
16579;SDS011;8402;51.466;6.806;2023-05-21T12:34:18;13.85;;;11.40;;
16579;SDS011;8402;51.466;6.806;2023-05-21T12:37:06;13.63;;;11.10;;
16579;SDS011;8402;51.466;6.806;2023-05-21T12:39:39;29.73;;;24.45;;
16579;SDS011;8402;51.466;6.806;2023-05-21T12:42:11;16.92;;;12.82;;
16579;SDS011;8402;51.466;6.806;2023-05-21T12:44:42;16.52;;;12.93;;
16579;SDS011;8402;51.466;6.806;2023-05-21T12:47:13;15.75;;;12.73;;
16579;SDS011;8402;51.466;6.806;2023-05-21T12:49:46;34.53;;;23.63;;
16579;SDS011;8402;51.466;6.806;2023-05-21T12:52:20;16.25;;;11.02;;
16579;SDS011;8402;51.466;6.806;2023-05-21T12:54:51;17.65;;;11.85;;
16579;SDS011;8402;51.466;6.806;2023-05-21T12:57:23;16.20;;;11.95;;
16579;SDS011;8402;51.466;6.806;2023-05-21T12:59:54;14.63;;;11.65;;
16579;SDS011;8402;51.466;6.806;2023-05-21T13:02:26;16.33;;;12.57;;
16579;SDS011;8402;51.466;6.806;2023-05-21T13:04:59;13.02;;;11.13;;
16579;SDS011;8402;51.466;6.806;2023-05-21T13:07:35;17.67;;;11.25;;
16579;SDS011;8402;51.466;6.806;2023-05-21T13:10:07;18.73;;;11.65;;
16579;SDS011;8402;51.466;6.806;2023-05-21T13:12:38;19.52;;;13.45;;
16579;SDS011;8402;51.466;6.806;2023-05-21T13:15:10;14.90;;;11.40;;
16579;SDS011;8402;51.466;6.806;2023-05-21T13:17:40;18.02;;;11.55;;
16579;SDS011;8402;51.466;6.806;2023-05-21T13:20:15;16.75;;;11.85;;
16579;SDS011;8402;51.466;6.806;2023-05-21T13:22:52;15.05;;;11.50;;
16579;SDS011;8402;51.466;6.806;2023-05-21T13:25:28;12.77;;;11.23;;
16579;SDS011;8402;51.466;6.806;2023-05-21T13:27:59;16.13;;;12.05;;
16579;SDS011;8402;51.466;6.806;2023-05-21T13:30:31;15.73;;;11.48;;
16579;SDS011;8402;51.466;6.806;2023-05-21T13:33:02;21.40;;;14.93;;
16579;SDS011;8402;51.466;6.806;2023-05-21T13:35:34;48.22;;;37.80;;
16579;SDS011;8402;51.466;6.806;2023-05-21T13:38:04;17.20;;;11.80;;
16579;SDS011;8402;51.466;6.806;2023-05-21T13:40:34;15.10;;;12.13;;
16579;SDS011;8402;51.466;6.806;2023-05-21T13:43:04;14.93;;;11.63;;
16579;SDS011;8402;51.466;6.806;2023-05-21T13:45:34;15.27;;;11.32;;
16579;SDS011;8402;51.466;6.806;2023-05-21T13:48:04;13.13;;;11.73;;
16579;SDS011;8402;51.466;6.806;2023-05-21T13:50:37;13.23;;;11.85;;
16579;SDS011;8402;51.466;6.806;2023-05-21T13:53:07;15.75;;;11.88;;
16579;SDS011;8402;51.466;6.806;2023-05-21T13:55:37;11.73;;;10.30;;
16579;SDS011;8402;51.466;6.806;2023-05-21T13:58:07;15.00;;;12.57;;
16579;SDS011;8402;51.466;6.806;2023-05-21T14:00:37;13.52;;;10.80;;
16579;SDS011;8402;51.466;6.806;2023-05-21T14:03:08;14.57;;;11.30;;
16579;SDS011;8402;51.466;6.806;2023-05-21T14:05:41;13.68;;;10.57;;
16579;SDS011;8402;51.466;6.806;2023-05-21T14:08:11;13.02;;;10.77;;
16579;SDS011;8402;51.466;6.806;2023-05-21T14:10:42;14.77;;;11.10;;
16579;SDS011;8402;51.466;6.806;2023-05-21T14:13:12;14.05;;;11.05;;
16579;SDS011;8402;51.466;6.806;2023-05-21T14:15:45;12.63;;;10.75;;
16579;SDS011;8402;51.466;6.806;2023-05-21T14:18:15;11.73;;;10.50;;
16579;SDS011;8402;51.466;6.806;2023-05-21T14:20:49;12.77;;;10.38;;
16579;SDS011;8402;51.466;6.806;2023-05-21T14:23:19;13.32;;;10.85;;
16579;SDS011;8402;51.466;6.806;2023-05-21T14:25:49;13.13;;;10.60;;
16579;SDS011;8402;51.466;6.806;2023-05-21T14:28:19;13.32;;;10.10;;
16579;SDS011;8402;51.466;6.806;2023-05-21T14:30:49;12.93;;;10.63;;
16579;SDS011;8402;51.466;6.806;2023-05-21T14:33:19;12.73;;;9.93;;
16579;SDS011;8402;51.466;6.806;2023-05-21T14:35:51;11.70;;;10.45;;
16579;SDS011;8402;51.466;6.806;2023-05-21T14:38:21;13.45;;;11.10;;
16579;SDS011;8402;51.466;6.806;2023-05-21T14:40:51;12.02;;;10.30;;
16579;SDS011;8402;51.466;6.806;2023-05-21T14:43:21;11.88;;;10.13;;
16579;SDS011;8402;51.466;6.806;2023-05-21T14:45:51;13.10;;;10.80;;
16579;SDS011;8402;51.466;6.806;2023-05-21T14:48:21;13.50;;;10.25;;
16579;SDS011;8402;51.466;6.806;2023-05-21T14:50:55;11.88;;;9.90;;
16579;SDS011;8402;51.466;6.806;2023-05-21T14:53:26;13.63;;;10.50;;
16579;SDS011;8402;51.466;6.806;2023-05-21T14:55:55;14.07;;;10.80;;
16579;SDS011;8402;51.466;6.806;2023-05-21T14:58:26;15.60;;;10.82;;
16579;SDS011;8402;51.466;6.806;2023-05-21T15:00:57;12.10;;;10.32;;
16579;SDS011;8402;51.466;6.806;2023-05-21T15:03:30;13.55;;;10.25;;
16579;SDS011;8402;51.466;6.806;2023-05-21T15:06:03;13.23;;;11.85;;
16579;SDS011;8402;51.466;6.806;2023-05-21T15:08:33;14.32;;;11.10;;
16579;SDS011;8402;51.466;6.806;2023-05-21T15:11:03;12.63;;;11.30;;
16579;SDS011;8402;51.466;6.806;2023-05-21T15:13:35;13.25;;;10.82;;
16579;SDS011;8402;51.466;6.806;2023-05-21T15:16:06;12.35;;;11.05;;